createdAt,value
2022-12-18T00:01:32.386Z,65.67
2022-12-18T00:04:00.579Z,65.93
2022-12-18T00:06:31.696Z,61.47
2022-12-18T00:09:00.637Z,63.53
2022-12-18T00:11:30.912Z,64.57
2022-12-18T00:14:00.925Z,66.17
2022-12-18T00:16:31.116Z,65.73
2022-12-18T00:19:01.985Z,67.80
2022-12-18T00:21:32.656Z,63.83
2022-12-18T00:24:01.909Z,65.30
2022-12-18T00:26:32.104Z,63.83
2022-12-18T00:29:05.886Z,59.43
2022-12-18T00:31:34.784Z,65.83
2022-12-18T00:34:03.553Z,59.53
2022-12-18T00:36:34.331Z,60.90
2022-12-18T00:39:04.553Z,59.57
2022-12-18T00:41:50.204Z,59.00
2022-12-18T00:44:20.062Z,50.80
2022-12-18T00:46:49.666Z,51.30
2022-12-18T00:49:19.388Z,44.83
2022-12-18T00:51:49.777Z,46.20
2022-12-18T00:54:18.103Z,43.10
2022-12-18T00:56:49.333Z,33.23
2022-12-18T00:59:18.472Z,35.90
2022-12-18T01:01:46.978Z,33.80
2022-12-18T01:04:15.954Z,31.53
2022-12-18T01:06:47.062Z,29.73
2022-12-18T01:09:16.794Z,31.03
2022-12-18T01:11:44.795Z,30.10
2022-12-18T01:14:12.900Z,30.47
2022-12-18T01:16:41.030Z,30.43
2022-12-18T01:19:09.108Z,30.90
2022-12-18T01:21:37.138Z,29.93
2022-12-18T01:24:06.865Z,31.17
2022-12-18T01:26:36.701Z,31.73
2022-12-18T01:29:04.722Z,29.50
2022-12-18T01:31:34.679Z,29.40
2022-12-18T01:34:05.233Z,29.40
2022-12-18T01:36:34.811Z,30.80
2022-12-18T01:39:05.265Z,29.20
2022-12-18T01:41:49.353Z,29.80
2022-12-18T01:44:57.061Z,30.03
2022-12-18T01:47:29.607Z,30.97
2022-12-18T01:49:59.691Z,30.70
2022-12-18T01:52:30.771Z,30.37
2022-12-18T01:54:59.348Z,30.13
2022-12-18T01:57:28.383Z,30.30
2022-12-18T02:00:01.890Z,29.33
2022-12-18T02:02:42.340Z,30.20
2022-12-18T02:05:12.341Z,31.40
2022-12-18T02:07:47.760Z,31.27
2022-12-18T02:10:22.013Z,28.47
2022-12-18T02:12:57.536Z,31.30
2022-12-18T02:15:33.893Z,29.40
2022-12-18T02:18:08.803Z,28.27
2022-12-18T02:20:41.446Z,27.57
2022-12-18T02:23:19.064Z,28.00
2022-12-18T02:26:08.140Z,27.90
2022-12-18T02:28:39.635Z,28.27
2022-12-18T02:31:13.883Z,25.80
2022-12-18T02:33:43.706Z,28.33
2022-12-18T02:36:13.051Z,27.67
2022-12-18T02:38:41.777Z,28.27
2022-12-18T02:41:16.797Z,28.87
2022-12-18T02:43:50.682Z,28.13
2022-12-18T02:46:31.956Z,28.60
2022-12-18T02:49:11.599Z,28.27
2022-12-18T02:51:50.067Z,29.03
2022-12-18T02:54:29.633Z,28.10
2022-12-18T02:57:07.971Z,28.53
2022-12-18T02:59:44.216Z,32.63
2022-12-18T03:02:23.296Z,32.27
2022-12-18T03:05:00.676Z,33.10
2022-12-18T03:07:36.943Z,34.03
2022-12-18T03:10:14.909Z,33.20
2022-12-18T03:12:47.152Z,32.87
2022-12-18T03:15:20.240Z,35.70
2022-12-18T03:17:57.278Z,36.63
2022-12-18T03:20:29.579Z,42.17
2022-12-18T03:23:02.376Z,44.20
2022-12-18T03:25:32.686Z,46.60
2022-12-18T03:28:05.526Z,48.93
2022-12-18T03:30:35.876Z,48.97
2022-12-18T03:33:09.951Z,50.50
2022-12-18T03:35:43.780Z,49.70
2022-12-18T03:38:13.968Z,51.57
2022-12-18T03:40:59.098Z,53.27
2022-12-18T03:43:41.227Z,52.70
2022-12-18T03:46:16.161Z,49.93
2022-12-18T03:48:50.745Z,50.50
2022-12-18T03:51:28.784Z,50.03
2022-12-18T03:54:00.936Z,53.10
2022-12-18T03:56:37.906Z,52.77
2022-12-18T03:59:11.414Z,54.97
2022-12-18T04:01:45.197Z,55.80
2022-12-18T04:04:16.613Z,55.40
2022-12-18T04:06:47.919Z,58.43
2022-12-18T04:09:16.710Z,54.47
2022-12-18T04:11:48.792Z,51.47
2022-12-18T04:14:19.488Z,53.73
2022-12-18T04:16:51.392Z,57.50
2022-12-18T04:19:23.215Z,57.47
2022-12-18T04:21:52.879Z,54.87
2022-12-18T04:24:20.970Z,54.90
2022-12-18T04:27:01.602Z,57.20
2022-12-18T04:29:35.866Z,52.27
2022-12-18T04:32:03.956Z,59.87
2022-12-18T04:34:33.737Z,58.83
2022-12-18T04:37:01.919Z,56.47
2022-12-18T04:39:30.677Z,57.53
2022-12-18T04:42:03.495Z,58.90
2022-12-18T04:44:31.514Z,60.13
2022-12-18T04:47:00.864Z,58.23
2022-12-18T04:49:28.837Z,60.30
2022-12-18T04:51:56.991Z,61.70
2022-12-18T04:54:24.978Z,59.03
2022-12-18T04:56:53.034Z,62.13
2022-12-18T04:59:21.677Z,61.57
2022-12-18T05:01:49.777Z,60.87
2022-12-18T05:04:19.285Z,62.23
2022-12-18T05:06:48.147Z,59.80
2022-12-18T05:09:16.769Z,60.20
2022-12-18T05:11:45.203Z,58.57
2022-12-18T05:14:14.467Z,65.50
2022-12-18T05:16:42.740Z,58.33
2022-12-18T05:19:10.879Z,64.77
2022-12-18T05:21:40.539Z,59.77
2022-12-18T05:24:08.927Z,64.73
2022-12-18T05:26:36.925Z,61.63
2022-12-18T05:29:05.023Z,65.40
2022-12-18T05:31:38.928Z,59.70
2022-12-18T05:34:08.287Z,61.63
2022-12-18T05:36:36.433Z,59.77
2022-12-18T05:39:05.934Z,59.17
2022-12-18T05:41:34.160Z,64.80
2022-12-18T05:44:02.385Z,61.90
2022-12-18T05:46:30.609Z,61.83
2022-12-18T05:49:01.564Z,60.27
2022-12-18T05:51:30.035Z,61.27
2022-12-18T05:53:58.020Z,59.53
2022-12-18T05:56:27.444Z,62.83
2022-12-18T05:58:56.354Z,61.13
2022-12-18T06:01:27.936Z,63.23
2022-12-18T06:03:56.892Z,65.13
2022-12-18T06:06:27.021Z,63.87
2022-12-18T06:08:56.316Z,62.90
2022-12-18T06:11:26.331Z,64.40
2022-12-18T06:13:58.932Z,61.50
2022-12-18T06:16:28.024Z,64.87
2022-12-18T06:18:58.532Z,58.87
2022-12-18T06:21:26.872Z,65.57
2022-12-18T06:23:55.051Z,64.77
2022-12-18T06:26:27.765Z,65.63
2022-12-18T06:28:58.001Z,62.10
2022-12-18T06:31:27.624Z,67.27
2022-12-18T06:33:55.822Z,63.30
2022-12-18T06:36:23.891Z,64.50
2022-12-18T06:38:53.391Z,64.87
2022-12-18T06:41:23.173Z,64.57
2022-12-18T06:43:53.581Z,60.00
2022-12-18T06:46:25.044Z,61.60
2022-12-18T06:48:53.007Z,60.90
2022-12-18T06:51:21.978Z,64.10
2022-12-18T06:53:50.023Z,65.03
2022-12-18T06:56:18.248Z,58.60
2022-12-18T06:58:46.612Z,64.03
2022-12-18T07:01:15.696Z,63.47
2022-12-18T07:03:45.674Z,62.13
2022-12-18T07:06:19.101Z,60.20
2022-12-18T07:08:47.586Z,63.60
2022-12-18T07:11:16.160Z,64.73
2022-12-18T07:13:44.708Z,63.87
2022-12-18T07:16:22.380Z,61.37
2022-12-18T07:18:54.787Z,63.07
2022-12-18T07:21:23.803Z,59.43
2022-12-18T07:23:51.810Z,60.10
2022-12-18T07:26:21.383Z,61.57
2022-12-18T07:28:50.648Z,63.03
2022-12-18T07:31:21.514Z,60.13
2022-12-18T07:33:50.461Z,61.47
2022-12-18T07:36:20.424Z,61.67
2022-12-18T07:38:49.948Z,63.20
2022-12-18T07:41:19.674Z,63.63
2022-12-18T07:43:48.445Z,63.73
2022-12-18T07:46:17.848Z,60.07
2022-12-18T07:48:50.052Z,61.93
2022-12-18T07:51:21.012Z,62.27
2022-12-18T07:53:52.286Z,62.53
2022-12-18T07:56:30.336Z,60.77
2022-12-18T07:58:59.569Z,66.73
2022-12-18T08:01:27.921Z,64.33
2022-12-18T08:03:56.097Z,65.70
2022-12-18T08:06:25.458Z,58.63
2022-12-18T08:08:54.760Z,57.57
2022-12-18T08:11:23.672Z,66.00
2022-12-18T08:13:51.861Z,63.67
2022-12-18T08:16:20.782Z,62.37
2022-12-18T08:18:49.469Z,59.73
2022-12-18T08:21:22.094Z,60.10
2022-12-18T08:23:52.412Z,62.63
2022-12-18T08:26:21.309Z,60.40
2022-12-18T08:28:50.825Z,59.67
2022-12-18T08:31:19.410Z,59.63
2022-12-18T08:33:49.970Z,65.23
2022-12-18T08:36:18.228Z,59.60
2022-12-18T08:38:46.269Z,65.50
2022-12-18T08:41:18.247Z,62.70
2022-12-18T08:44:04.174Z,56.30
2022-12-18T08:46:36.664Z,61.30
2022-12-18T08:49:05.374Z,58.00
2022-12-18T08:51:33.397Z,56.70
2022-12-18T08:54:01.358Z,57.83
2022-12-18T08:56:32.040Z,60.30
2022-12-18T08:59:00.198Z,58.90
2022-12-18T09:01:28.485Z,58.23
2022-12-18T09:03:56.593Z,56.93
2022-12-18T09:06:25.481Z,59.73
2022-12-18T09:08:53.543Z,56.70
2022-12-18T09:11:24.607Z,62.57
2022-12-18T09:13:54.980Z,57.50
2022-12-18T09:16:30.134Z,57.77
2022-12-18T09:19:01.340Z,57.97
2022-12-18T09:21:33.937Z,55.53
2022-12-18T09:24:08.026Z,58.90
2022-12-18T09:26:37.318Z,56.73
2022-12-18T09:29:08.177Z,54.60
2022-12-18T09:31:36.789Z,60.80
2022-12-18T09:34:04.869Z,56.63
2022-12-18T09:36:34.058Z,59.80
2022-12-18T09:39:07.564Z,61.23
2022-12-18T09:41:45.163Z,60.90
2022-12-18T09:44:22.199Z,51.87
2022-12-18T09:46:56.763Z,59.87
2022-12-18T09:49:28.303Z,60.07
2022-12-18T09:52:01.875Z,58.90
2022-12-18T09:54:38.070Z,61.87
2022-12-18T09:57:06.452Z,61.17
2022-12-18T09:59:38.477Z,58.63
2022-12-18T10:02:18.682Z,58.90
2022-12-18T10:04:55.782Z,56.40
2022-12-18T10:07:31.359Z,55.50
2022-12-18T10:10:07.243Z,55.90
2022-12-18T10:12:43.409Z,59.47
2022-12-18T10:15:21.927Z,59.27
2022-12-18T10:17:57.543Z,57.60
2022-12-18T10:20:34.968Z,58.00
2022-12-18T10:23:16.036Z,57.03
2022-12-18T10:25:57.692Z,57.10
2022-12-18T10:28:26.879Z,54.10
2022-12-18T10:30:56.262Z,60.30
2022-12-18T10:33:26.584Z,59.67
2022-12-18T10:35:56.333Z,62.53
2022-12-18T10:38:27.158Z,57.67
2022-12-18T10:40:57.576Z,63.27
2022-12-18T10:43:28.374Z,58.83
2022-12-18T10:46:04.621Z,54.83
2022-12-18T10:48:33.872Z,59.17
2022-12-18T10:51:10.804Z,59.97
2022-12-18T10:53:44.079Z,58.13
2022-12-18T10:56:13.051Z,62.60
2022-12-18T10:58:41.814Z,66.00
2022-12-18T11:01:13.964Z,59.50
2022-12-18T11:03:44.560Z,58.10
2022-12-18T11:06:15.395Z,59.30
2022-12-18T11:08:46.552Z,56.43
2022-12-18T11:11:22.523Z,64.13
2022-12-18T11:14:01.416Z,48.90
2022-12-18T11:16:32.998Z,48.20
2022-12-18T11:19:25.892Z,48.90
2022-12-18T11:21:54.127Z,45.80
2022-12-18T11:24:29.342Z,60.10
2022-12-18T11:26:59.792Z,33.83
2022-12-18T11:29:35.608Z,30.43
2022-12-18T11:32:30.394Z,32.60
2022-12-18T11:35:05.321Z,30.20
2022-12-18T11:37:35.016Z,32.63
2022-12-18T11:40:09.197Z,32.53
2022-12-18T11:42:43.672Z,31.53
2022-12-18T11:45:26.868Z,31.33
2022-12-18T11:48:01.425Z,29.97
2022-12-18T11:50:36.009Z,27.30
2022-12-18T11:53:06.357Z,28.27
2022-12-18T11:55:42.107Z,29.40
2022-12-18T11:58:22.561Z,37.30
2022-12-18T12:00:59.268Z,40.63
2022-12-18T12:03:49.894Z,40.07
2022-12-18T12:06:25.160Z,37.90
2022-12-18T12:09:05.021Z,37.00
2022-12-18T12:11:44.313Z,40.47
2022-12-18T12:14:24.823Z,37.60
2022-12-18T12:16:59.416Z,35.60
2022-12-18T12:19:38.848Z,32.40
2022-12-18T12:22:16.056Z,35.87
2022-12-18T12:24:58.468Z,37.33
2022-12-18T12:27:36.742Z,36.17
2022-12-18T12:30:10.380Z,38.97
2022-12-18T12:32:53.029Z,35.67
2022-12-18T12:35:31.894Z,35.77
2022-12-18T12:38:11.546Z,37.73
2022-12-18T12:40:55.187Z,36.70
2022-12-18T12:43:34.468Z,38.53
2022-12-18T12:46:07.852Z,38.23
2022-12-18T12:48:45.624Z,36.87
2022-12-18T12:51:21.029Z,38.50
2022-12-18T12:53:50.616Z,40.10
2022-12-18T12:56:22.889Z,40.37
2022-12-18T12:59:07.143Z,39.67
2022-12-18T13:01:43.267Z,35.93
2022-12-18T13:04:23.915Z,36.40
2022-12-18T13:07:03.657Z,39.87
2022-12-18T13:09:36.826Z,39.10
2022-12-18T13:12:34.916Z,35.47
2022-12-18T13:15:22.602Z,37.13
2022-12-18T13:17:50.986Z,38.00
2022-12-18T13:20:19.331Z,33.17
2022-12-18T13:22:51.345Z,33.07
2022-12-18T13:25:35.797Z,32.73
2022-12-18T13:28:07.264Z,42.70
2022-12-18T13:30:58.048Z,38.40
2022-12-18T13:34:02.223Z,37.13
2022-12-18T13:36:34.529Z,38.57
2022-12-18T13:39:29.945Z,38.33
2022-12-18T13:43:00.311Z,42.73
2022-12-18T13:45:43.299Z,39.40
2022-12-18T13:48:25.183Z,40.10
2022-12-18T13:51:01.753Z,39.17
2022-12-18T13:53:35.004Z,41.00
2022-12-18T13:56:05.805Z,39.57
2022-12-18T13:58:34.059Z,41.13
2022-12-18T14:01:04.177Z,41.47
2022-12-18T14:03:32.647Z,42.50
2022-12-18T14:06:08.573Z,43.27
2022-12-18T14:08:41.508Z,49.57
2022-12-18T14:11:21.321Z,46.83
2022-12-18T14:13:50.299Z,45.90
2022-12-18T14:16:19.817Z,49.43
2022-12-18T14:18:50.217Z,52.30
2022-12-18T14:21:22.058Z,53.73
2022-12-18T14:23:50.199Z,55.93
2022-12-18T14:26:30.380Z,61.37
2022-12-18T14:29:02.153Z,66.17
2022-12-18T14:31:32.639Z,62.40
2022-12-18T14:34:00.734Z,67.47
2022-12-18T14:36:30.552Z,64.53
2022-12-18T14:39:00.405Z,62.03
2022-12-18T14:41:29.995Z,59.23
2022-12-18T14:44:08.222Z,60.63
2022-12-18T14:46:39.631Z,59.87
2022-12-18T14:49:22.646Z,66.47
2022-12-18T14:51:53.119Z,63.77
2022-12-18T14:54:23.029Z,62.63
2022-12-18T14:56:58.596Z,64.07
2022-12-18T14:59:28.235Z,65.27
2022-12-18T15:02:03.353Z,64.77
2022-12-18T15:04:36.282Z,65.13
2022-12-18T15:07:12.289Z,62.87
2022-12-18T15:09:41.708Z,69.00
2022-12-18T15:12:26.819Z,69.57
2022-12-18T15:14:54.904Z,64.47
2022-12-18T15:17:26.100Z,65.77
2022-12-18T15:20:00.980Z,64.57
2022-12-18T15:22:31.183Z,68.80
2022-12-18T15:25:01.120Z,69.83
2022-12-18T15:27:33.396Z,67.90
2022-12-18T15:30:20.107Z,69.70
2022-12-18T15:32:48.762Z,69.40
2022-12-18T15:35:20.325Z,72.60
2022-12-18T15:37:48.516Z,70.37
2022-12-18T15:40:18.071Z,79.47
2022-12-18T15:43:08.350Z,78.80
2022-12-18T15:45:36.770Z,86.23
2022-12-18T15:48:13.398Z,88.00
2022-12-18T15:50:41.559Z,81.80
2022-12-18T15:53:11.105Z,85.20
2022-12-18T15:56:00.973Z,82.33
2022-12-18T15:58:30.819Z,88.77
2022-12-18T16:01:01.951Z,88.90
2022-12-18T16:03:30.212Z,97.30
2022-12-18T16:05:59.429Z,92.37
2022-12-18T16:08:28.377Z,93.87
2022-12-18T16:10:57.223Z,86.83
2022-12-18T16:13:25.861Z,92.50
2022-12-18T16:15:55.512Z,85.23
2022-12-18T16:18:23.723Z,78.70
2022-12-18T16:20:51.837Z,81.67
2022-12-18T16:23:19.821Z,73.33
2022-12-18T16:25:48.693Z,74.37
2022-12-18T16:28:16.837Z,74.50
2022-12-18T16:30:45.945Z,75.07
2022-12-18T16:33:15.445Z,75.10
2022-12-18T16:35:44.636Z,76.00
2022-12-18T16:38:12.641Z,70.90
2022-12-18T16:41:02.959Z,84.07
2022-12-18T16:43:31.055Z,75.20
2022-12-18T16:46:01.197Z,75.30
2022-12-18T16:48:30.652Z,68.50
2022-12-18T16:51:03.744Z,73.57
2022-12-18T16:53:32.272Z,72.30
2022-12-18T16:56:01.536Z,72.20
2022-12-18T16:58:29.689Z,72.00
2022-12-18T17:00:57.764Z,73.23
2022-12-18T17:03:25.955Z,71.03
2022-12-18T17:05:56.167Z,75.33
2022-12-18T17:08:24.343Z,72.80
2022-12-18T17:10:52.334Z,72.20
2022-12-18T17:13:25.569Z,71.23
2022-12-18T17:15:54.219Z,76.17
2022-12-18T17:18:23.236Z,70.87
2022-12-18T17:20:51.378Z,70.27
2022-12-18T17:23:20.956Z,67.67
2022-12-18T17:25:49.081Z,75.80
2022-12-18T17:28:17.352Z,75.63
2022-12-18T17:30:45.791Z,73.50
2022-12-18T17:33:14.157Z,72.73
2022-12-18T17:35:44.015Z,79.83
2022-12-18T17:38:13.039Z,74.27
2022-12-18T17:40:46.222Z,82.87
2022-12-18T17:43:14.969Z,71.90
2022-12-18T17:45:43.822Z,77.70
2022-12-18T17:48:12.483Z,78.17
2022-12-18T17:50:41.320Z,79.93
2022-12-18T17:53:09.645Z,76.53
2022-12-18T17:55:37.831Z,75.20
2022-12-18T17:58:07.421Z,74.47
2022-12-18T18:00:35.452Z,75.17
2022-12-18T18:03:03.753Z,73.77
2022-12-18T18:05:31.893Z,73.73
2022-12-18T18:08:02.952Z,76.50
2022-12-18T18:10:30.932Z,79.40
2022-12-18T18:13:17.697Z,72.50
2022-12-18T18:15:55.992Z,69.40
2022-12-18T18:18:24.216Z,72.73
2022-12-18T18:20:53.969Z,74.67
2022-12-18T18:23:22.266Z,74.37
2022-12-18T18:25:50.242Z,79.47
2022-12-18T18:28:19.477Z,77.27
2022-12-18T18:30:48.781Z,78.93
2022-12-18T18:33:18.249Z,73.87
2022-12-18T18:35:54.438Z,73.80
2022-12-18T18:38:23.186Z,73.40
2022-12-18T18:40:59.328Z,80.97
2022-12-18T18:43:27.352Z,75.60
2022-12-18T18:45:58.820Z,73.27
2022-12-18T18:48:27.464Z,68.37
2022-12-18T18:50:58.443Z,65.43
2022-12-18T18:53:26.859Z,67.70
2022-12-18T18:56:17.482Z,68.50
2022-12-18T18:58:42.966Z,69.87
2022-12-18T19:01:15.177Z,68.17
2022-12-18T19:03:44.853Z,67.83
2022-12-18T19:06:15.550Z,66.00
2022-12-18T19:08:44.368Z,66.80
2022-12-18T19:11:30.617Z,64.80
2022-12-18T19:14:06.018Z,65.13
2022-12-18T19:16:37.010Z,65.13
2022-12-18T19:19:05.744Z,66.13
2022-12-18T19:21:34.875Z,68.70
2022-12-18T19:24:03.517Z,71.40
2022-12-18T19:26:31.547Z,71.00
2022-12-18T19:29:03.338Z,73.93
2022-12-18T19:31:35.462Z,78.40
2022-12-18T19:34:07.806Z,75.83
2022-12-18T19:36:38.952Z,78.93
2022-12-18T19:39:10.695Z,75.17
2022-12-18T19:41:38.939Z,75.27
2022-12-18T19:44:08.677Z,71.60
2022-12-18T19:46:40.330Z,70.60
2022-12-18T19:49:18.036Z,71.80
2022-12-18T19:51:46.697Z,70.03
2022-12-18T19:54:16.987Z,68.60
2022-12-18T19:56:45.866Z,71.17
2022-12-18T19:59:14.113Z,71.63
2022-12-18T20:01:42.263Z,72.97
2022-12-18T20:04:10.465Z,75.50
2022-12-18T20:06:48.728Z,74.20
2022-12-18T20:09:17.580Z,75.47
2022-12-18T20:11:46.151Z,71.73
2022-12-18T20:14:22.734Z,70.77
2022-12-18T20:16:52.406Z,80.70
2022-12-18T20:19:21.664Z,75.80
2022-12-18T20:21:51.236Z,68.80
2022-12-18T20:24:19.275Z,76.40
2022-12-18T20:26:47.289Z,70.93
2022-12-18T20:29:15.320Z,72.10
2022-12-18T20:31:43.369Z,66.83
2022-12-18T20:34:11.569Z,70.80
2022-12-18T20:36:39.894Z,70.40
2022-12-18T20:39:13.323Z,70.70
2022-12-18T20:41:41.684Z,69.83
2022-12-18T20:44:23.020Z,69.30
2022-12-18T20:46:53.415Z,71.63
2022-12-18T20:49:21.532Z,78.67
2022-12-18T20:51:52.402Z,72.87
2022-12-18T20:54:22.113Z,70.37
2022-12-18T20:56:50.202Z,67.20
2022-12-18T20:59:19.858Z,64.27
2022-12-18T21:01:48.400Z,65.60
2022-12-18T21:04:18.533Z,66.93
2022-12-18T21:06:51.433Z,67.03
2022-12-18T21:09:22.731Z,68.93
2022-12-18T21:12:08.814Z,68.67
2022-12-18T21:14:40.027Z,69.47
2022-12-18T21:17:08.129Z,66.87
2022-12-18T21:19:36.208Z,68.10
2022-12-18T21:22:04.483Z,65.13
2022-12-18T21:24:34.037Z,66.90
2022-12-18T21:27:02.125Z,70.23
2022-12-18T21:29:30.306Z,73.53
2022-12-18T21:31:58.345Z,68.10
2022-12-18T21:34:28.804Z,67.27
2022-12-18T21:36:59.201Z,68.67
2022-12-18T21:39:28.811Z,69.33
2022-12-18T21:42:16.609Z,70.43
2022-12-18T21:44:45.626Z,70.23
2022-12-18T21:47:22.909Z,64.83
2022-12-18T21:49:52.855Z,65.60
2022-12-18T21:52:27.260Z,68.03
2022-12-18T21:55:03.268Z,67.87
2022-12-18T21:57:38.013Z,69.90
2022-12-18T22:00:07.596Z,69.40
2022-12-18T22:02:41.857Z,68.50
2022-12-18T22:05:10.667Z,67.37
2022-12-18T22:07:39.211Z,68.97
2022-12-18T22:10:08.168Z,69.07
2022-12-18T22:12:43.105Z,65.07
2022-12-18T22:15:18.634Z,63.93
2022-12-18T22:17:50.428Z,66.80
2022-12-18T22:20:20.082Z,65.77
2022-12-18T22:22:48.637Z,68.73
2022-12-18T22:25:16.695Z,75.27
2022-12-18T22:28:07.058Z,76.67
2022-12-18T22:30:34.076Z,76.47
2022-12-18T22:33:02.788Z,70.50
2022-12-18T22:35:30.812Z,74.33
2022-12-18T22:37:59.724Z,76.40
2022-12-18T22:40:28.601Z,75.70
2022-12-18T22:42:58.208Z,77.37
2022-12-18T22:45:26.796Z,75.43
2022-12-18T22:47:54.985Z,81.50
2022-12-18T22:50:23.096Z,75.77
2022-12-18T22:52:51.102Z,82.83
2022-12-18T22:55:19.110Z,82.50
2022-12-18T22:57:49.033Z,82.33
2022-12-18T23:00:23.790Z,77.20
2022-12-18T23:02:59.185Z,76.50
2022-12-18T23:05:27.668Z,80.33
2022-12-18T23:07:55.967Z,84.47
2022-12-18T23:10:24.092Z,81.63
2022-12-18T23:12:52.151Z,79.97
2022-12-18T23:15:27.207Z,80.50
2022-12-18T23:17:57.400Z,81.53
2022-12-18T23:20:25.441Z,82.77
2022-12-18T23:22:53.465Z,78.33
2022-12-18T23:25:21.654Z,82.20
2022-12-18T23:27:49.684Z,75.63
2022-12-18T23:30:17.857Z,80.30
2022-12-18T23:32:47.266Z,81.03
2022-12-18T23:35:15.805Z,76.33
2022-12-18T23:37:58.801Z,88.83
2022-12-18T23:40:28.033Z,81.23
2022-12-18T23:42:56.057Z,86.87
2022-12-18T23:45:24.132Z,83.90
2022-12-18T23:47:53.497Z,79.73
2022-12-18T23:50:24.528Z,86.83
2022-12-18T23:52:57.238Z,82.00
2022-12-18T23:55:33.478Z,79.03
2022-12-18T23:58:01.545Z,81.37
